createdAt,value
2018-09-28T00:00:49.410Z,51.82
2018-09-28T00:03:17.717Z,52.50
2018-09-28T00:05:46.032Z,52.51
2018-09-28T00:08:14.385Z,51.91
2018-09-28T00:10:42.675Z,52.46
2018-09-28T00:13:11.011Z,52.09
2018-09-28T00:15:39.350Z,52.39
2018-09-28T00:18:07.746Z,52.41
2018-09-28T00:20:36.042Z,52.76
2018-09-28T00:23:04.347Z,52.59
2018-09-28T00:25:32.694Z,52.21
2018-09-28T00:28:00.990Z,52.50
2018-09-28T00:30:29.263Z,52.40
2018-09-28T00:32:57.591Z,52.38
2018-09-28T00:35:25.962Z,52.59
2018-09-28T00:37:54.266Z,52.44
2018-09-28T00:40:22.543Z,52.27
2018-09-28T00:42:50.906Z,52.40
2018-09-28T00:45:19.262Z,53.08
2018-09-28T00:47:47.569Z,52.95
2018-09-28T00:50:15.860Z,53.03
2018-09-28T00:52:44.216Z,53.07
2018-09-28T00:55:13.391Z,52.96
2018-09-28T00:57:41.686Z,53.23
2018-09-28T01:00:10.023Z,53.46
2018-09-28T01:02:38.342Z,53.97
2018-09-28T01:05:06.649Z,54.16
2018-09-28T01:07:34.940Z,54.50
2018-09-28T01:10:03.563Z,54.29
2018-09-28T01:12:31.878Z,53.94
2018-09-28T01:15:00.199Z,54.04
2018-09-28T01:17:28.497Z,54.32
2018-09-28T01:19:56.814Z,54.26
2018-09-28T01:22:25.091Z,53.27
2018-09-28T01:24:53.425Z,53.34
2018-09-28T01:27:21.758Z,53.30
2018-09-28T01:29:50.123Z,53.24
2018-09-28T01:32:18.402Z,53.05
2018-09-28T01:34:46.853Z,53.22
2018-09-28T01:37:15.162Z,53.14
2018-09-28T01:39:43.586Z,52.84
2018-09-28T01:42:11.866Z,53.66
2018-09-28T01:44:40.248Z,53.87
2018-09-28T01:47:08.671Z,53.78
2018-09-28T01:49:36.985Z,53.88
2018-09-28T01:52:05.356Z,53.81
2018-09-28T01:54:33.668Z,53.97
2018-09-28T01:57:02.027Z,54.44
2018-09-28T01:59:30.339Z,54.46
2018-09-28T02:01:58.627Z,54.55
2018-09-28T02:04:26.999Z,55.02
2018-09-28T02:06:55.294Z,55.36
2018-09-28T02:09:23.605Z,54.48
2018-09-28T02:11:51.959Z,54.72
2018-09-28T02:14:20.291Z,54.42
2018-09-28T02:16:48.570Z,54.17
2018-09-28T02:19:16.912Z,53.43
2018-09-28T02:21:45.215Z,54.19
2018-09-28T02:24:13.518Z,53.91
2018-09-28T02:26:41.787Z,53.49
2018-09-28T02:29:10.070Z,52.68
2018-09-28T02:31:38.422Z,53.48
2018-09-28T02:34:06.982Z,53.28
2018-09-28T02:36:35.283Z,53.73
2018-09-28T02:39:04.235Z,53.64
2018-09-28T02:41:32.558Z,54.38
2018-09-28T02:44:00.842Z,54.82
2018-09-28T02:46:29.176Z,55.76
2018-09-28T02:48:57.474Z,55.43
2018-09-28T02:51:25.733Z,56.30
2018-09-28T02:53:54.030Z,56.78
2018-09-28T02:56:22.338Z,56.19
2018-09-28T02:58:50.667Z,56.16
2018-09-28T03:01:18.947Z,56.34
2018-09-28T03:03:47.210Z,56.54
2018-09-28T03:06:15.579Z,56.43
2018-09-28T03:08:43.895Z,56.65
2018-09-28T03:11:12.183Z,56.63
2018-09-28T03:13:40.481Z,56.51
2018-09-28T03:16:08.750Z,57.54
2018-09-28T03:18:37.322Z,56.90
2018-09-28T03:21:05.591Z,57.28
2018-09-28T03:23:36.791Z,57.22
2018-09-28T03:26:05.149Z,57.59
2018-09-28T03:28:33.366Z,57.93
2018-09-28T03:31:01.686Z,58.48
2018-09-28T03:33:29.938Z,59.51
2018-09-28T03:35:58.218Z,58.65
2018-09-28T03:38:26.511Z,59.14
2018-09-28T03:40:54.800Z,58.89
2018-09-28T03:43:23.067Z,58.64
2018-09-28T03:45:51.353Z,58.94
2018-09-28T03:48:19.642Z,58.77
2018-09-28T03:50:47.927Z,59.17
2018-09-28T03:53:16.182Z,59.32
2018-09-28T03:55:44.494Z,59.31
2018-09-28T03:58:12.773Z,59.36
2018-09-28T04:00:41.056Z,59.26
2018-09-28T04:03:09.328Z,60.44
2018-09-28T04:05:37.733Z,59.68
2018-09-28T04:08:06.016Z,60.45
2018-09-28T04:10:34.302Z,60.44
2018-09-28T04:13:02.623Z,60.21
2018-09-28T04:15:30.954Z,61.09
2018-09-28T04:17:59.267Z,60.67
2018-09-28T04:20:27.597Z,61.34
2018-09-28T04:22:55.891Z,61.74
2018-09-28T04:25:24.254Z,62.11
2018-09-28T04:27:52.550Z,61.78
2018-09-28T04:30:20.867Z,61.50
2018-09-28T04:32:49.193Z,61.68
2018-09-28T04:35:17.493Z,61.61
2018-09-28T04:37:45.800Z,61.84
2018-09-28T04:40:14.090Z,63.38
2018-09-28T04:42:42.401Z,63.94
2018-09-28T04:45:10.777Z,63.71
2018-09-28T04:47:39.035Z,62.61
2018-09-28T04:50:07.351Z,63.11
2018-09-28T04:52:35.634Z,62.62
2018-09-28T04:55:03.934Z,63.95
2018-09-28T04:57:32.251Z,63.63
2018-09-28T05:00:00.538Z,64.17
2018-09-28T05:02:28.849Z,63.95
2018-09-28T05:04:57.135Z,65.96
2018-09-28T05:07:25.444Z,67.12
2018-09-28T05:09:53.730Z,67.59
2018-09-28T05:12:22.103Z,68.45
2018-09-28T05:14:50.379Z,68.37
2018-09-28T05:17:18.668Z,68.80
2018-09-28T05:19:46.964Z,68.21
2018-09-28T05:22:15.246Z,68.40
2018-09-28T05:24:43.538Z,67.76
2018-09-28T05:27:11.914Z,67.98
2018-09-28T05:29:40.181Z,67.79
2018-09-28T05:32:08.599Z,67.46
2018-09-28T05:34:36.793Z,67.25
2018-09-28T05:37:05.357Z,66.71
2018-09-28T05:39:33.745Z,67.26
2018-09-28T05:42:02.831Z,66.73
2018-09-28T05:44:31.127Z,67.15
2018-09-28T05:46:59.467Z,66.51
2018-09-28T05:49:27.850Z,66.35
2018-09-28T05:51:56.255Z,66.10
2018-09-28T05:54:24.570Z,66.23
2018-09-28T05:56:52.936Z,66.68
2018-09-28T05:59:26.499Z,65.76
2018-09-28T06:02:00.139Z,66.49
2018-09-28T06:04:33.872Z,65.69
2018-09-28T06:07:02.194Z,66.44
2018-09-28T06:09:30.478Z,65.74
2018-09-28T06:11:59.288Z,65.83
2018-09-28T06:14:27.569Z,65.56
2018-09-28T06:16:55.850Z,66.37
2018-09-28T06:19:24.111Z,65.98
2018-09-28T06:21:52.382Z,65.75
2018-09-28T06:24:20.646Z,65.69
2018-09-28T06:26:48.925Z,65.45
2018-09-28T06:29:17.188Z,67.02
2018-09-28T06:31:45.494Z,66.62
2018-09-28T06:34:13.754Z,67.21
2018-09-28T06:36:42.044Z,66.97
2018-09-28T06:39:10.350Z,67.44
2018-09-28T06:41:38.677Z,66.90
2018-09-28T06:44:06.942Z,67.07
2018-09-28T06:46:35.239Z,67.57
2018-09-28T06:49:03.546Z,67.72
2018-09-28T06:51:31.814Z,67.33
2018-09-28T06:54:00.121Z,66.61
2018-09-28T06:56:28.383Z,67.39
2018-09-28T06:58:56.766Z,65.76
2018-09-28T07:01:25.075Z,66.81
2018-09-28T07:03:53.371Z,66.81
2018-09-28T07:06:21.774Z,65.91
2018-09-28T07:08:50.091Z,66.24
2018-09-28T07:11:18.363Z,65.40
2018-09-28T07:13:46.667Z,65.08
2018-09-28T07:16:15.000Z,65.17
2018-09-28T07:18:43.251Z,64.89
2018-09-28T07:21:11.499Z,64.44
2018-09-28T07:23:39.796Z,64.22
2018-09-28T07:26:08.075Z,64.07
2018-09-28T07:28:37.333Z,64.56
2018-09-28T07:31:05.607Z,63.78
2018-09-28T07:33:33.930Z,63.38
2018-09-28T07:36:02.314Z,63.35
2018-09-28T07:38:30.562Z,63.21
2018-09-28T07:40:58.843Z,62.47
2018-09-28T07:43:27.134Z,61.83
2018-09-28T07:45:55.407Z,62.13
2018-09-28T07:53:30.859Z,61.02
2018-09-28T07:55:59.261Z,59.72
2018-09-28T07:58:27.567Z,59.70
2018-09-28T08:01:01.402Z,59.71
2018-09-28T08:03:30.335Z,59.47
2018-09-28T08:06:00.019Z,59.23
2018-09-28T08:08:28.310Z,58.96
2018-09-28T08:10:56.598Z,57.98
2018-09-28T08:13:24.938Z,58.71
2018-09-28T08:15:53.235Z,57.84
2018-09-28T08:18:22.553Z,57.09
2018-09-28T08:20:51.210Z,55.19
2018-09-28T08:23:19.584Z,56.30
2018-09-28T08:25:47.899Z,55.72
2018-09-28T08:28:16.206Z,55.76
2018-09-28T08:30:44.542Z,54.52
2018-09-28T08:33:12.859Z,54.02
2018-09-28T08:35:41.159Z,54.46
2018-09-28T08:38:09.469Z,54.38
2018-09-28T08:40:37.774Z,54.71
2018-09-28T08:43:06.144Z,54.32
2018-09-28T08:45:34.463Z,54.46
2018-09-28T08:48:02.796Z,54.32
2018-09-28T08:50:31.093Z,53.17
2018-09-28T08:52:59.422Z,52.25
2018-09-28T08:55:27.758Z,52.72
2018-09-28T08:57:56.066Z,51.69
2018-09-28T09:00:24.397Z,51.90
2018-09-28T09:02:52.711Z,50.11
2018-09-28T09:05:21.035Z,50.69
2018-09-28T09:07:49.430Z,49.86
2018-09-28T09:10:17.746Z,52.28
2018-09-28T09:12:46.051Z,51.04
2018-09-28T09:15:14.361Z,51.84
2018-09-28T09:17:42.639Z,50.51
2018-09-28T09:20:10.942Z,49.89
2018-09-28T09:22:39.215Z,49.90
2018-09-28T09:25:07.543Z,49.99
2018-09-28T09:27:35.854Z,51.62
2018-09-28T09:30:04.463Z,51.21
2018-09-28T09:32:32.727Z,49.73
2018-09-28T09:35:01.780Z,51.26
2018-09-28T09:37:30.856Z,50.20
2018-09-28T09:39:59.979Z,50.50
2018-09-28T09:42:29.069Z,50.19
2018-09-28T09:44:57.641Z,51.91
2018-09-28T09:47:26.631Z,49.88
2018-09-28T09:49:55.730Z,50.42
2018-09-28T09:52:24.729Z,48.36
2018-09-28T09:54:53.707Z,48.42
2018-09-28T09:57:22.699Z,50.17
2018-09-28T09:59:51.831Z,48.67
2018-09-28T10:02:26.887Z,46.58
2018-09-28T10:04:55.224Z,47.27
2018-09-28T10:07:23.498Z,46.61
2018-09-28T10:09:51.798Z,47.24
2018-09-28T10:12:20.180Z,46.34
2018-09-28T10:14:48.478Z,46.42
2018-09-28T10:17:16.759Z,45.49
2018-09-28T10:19:45.167Z,45.90
2018-09-28T10:22:13.432Z,46.38
2018-09-28T10:24:42.775Z,47.64
2018-09-28T10:27:12.038Z,47.77
2018-09-28T10:29:40.449Z,47.72
2018-09-28T10:32:08.866Z,46.47
2018-09-28T10:34:37.215Z,45.66
2018-09-28T10:37:05.587Z,45.67
2018-09-28T10:39:33.886Z,45.15
2018-09-28T10:42:02.274Z,44.64
2018-09-28T10:44:30.554Z,43.80
2018-09-28T10:46:58.874Z,44.19
2018-09-28T10:49:27.211Z,44.89
2018-09-28T10:51:55.576Z,43.53
2018-09-28T10:54:23.825Z,43.78
2018-09-28T10:56:52.169Z,42.55
2018-09-28T10:59:20.482Z,43.07
2018-09-28T11:01:48.851Z,43.27
2018-09-28T11:04:17.149Z,42.51
2018-09-28T11:06:45.470Z,43.04
2018-09-28T11:09:13.960Z,43.86
2018-09-28T11:11:42.762Z,44.34
2018-09-28T11:14:11.243Z,43.39
2018-09-28T11:16:40.020Z,44.41
2018-09-28T11:19:08.319Z,42.88
2018-09-28T11:21:36.659Z,43.08
2018-09-28T11:24:04.958Z,44.10
2018-09-28T11:26:34.322Z,43.65
2018-09-28T11:29:02.603Z,43.95
2018-09-28T11:31:30.906Z,43.51
2018-09-28T11:33:59.220Z,43.95
2018-09-28T11:36:27.547Z,43.33
2018-09-28T11:38:55.844Z,42.85
2018-09-28T11:41:24.171Z,42.37
2018-09-28T11:43:52.471Z,42.00
2018-09-28T11:46:20.794Z,42.30
2018-09-28T11:48:49.117Z,42.11
2018-09-28T11:51:17.460Z,41.96
2018-09-28T11:53:45.746Z,41.41
2018-09-28T11:56:14.070Z,42.04
2018-09-28T11:58:42.371Z,43.50
2018-09-28T12:01:10.692Z,44.01
2018-09-28T12:03:39.043Z,43.45
2018-09-28T12:06:07.349Z,43.28
2018-09-28T12:08:35.746Z,43.58
2018-09-28T12:11:04.505Z,42.95
2018-09-28T12:13:32.864Z,42.04
2018-09-28T12:16:01.078Z,42.09
2018-09-28T12:18:29.393Z,41.32
2018-09-28T12:20:57.686Z,41.77
2018-09-28T12:23:25.979Z,39.20
2018-09-28T12:25:54.249Z,39.30
2018-09-28T12:28:22.560Z,39.27
2018-09-28T12:30:50.901Z,40.83
2018-09-28T12:33:19.217Z,40.33
2018-09-28T12:35:47.467Z,40.10
2018-09-28T12:38:15.750Z,39.66
2018-09-28T12:40:44.069Z,40.60
2018-09-28T12:43:12.378Z,39.87
2018-09-28T12:45:40.721Z,40.21
2018-09-28T12:48:09.026Z,40.55
2018-09-28T12:50:37.343Z,40.75
2018-09-28T12:53:05.627Z,39.84
2018-09-28T12:55:33.926Z,39.74
2018-09-28T12:58:02.245Z,40.62
2018-09-28T13:00:30.557Z,39.75
2018-09-28T13:02:59.947Z,41.08
2018-09-28T13:05:28.228Z,40.89
2018-09-28T13:07:56.595Z,40.29
2018-09-28T13:10:24.887Z,40.58
2018-09-28T13:12:53.231Z,40.59
2018-09-28T13:15:21.518Z,40.64
2018-09-28T13:17:49.868Z,39.98
2018-09-28T13:20:18.184Z,39.10
2018-09-28T13:22:47.564Z,39.02
2018-09-28T13:25:15.906Z,39.15
2018-09-28T13:27:44.199Z,38.43
2018-09-28T13:30:12.561Z,38.56
2018-09-28T13:32:40.859Z,38.34
2018-09-28T13:35:09.203Z,38.47
2018-09-28T13:37:37.503Z,39.59
2018-09-28T13:40:05.821Z,39.95
2018-09-28T13:42:34.545Z,40.09
2018-09-28T13:45:02.958Z,40.99
2018-09-28T13:47:31.221Z,40.34
2018-09-28T13:49:59.549Z,39.67
2018-09-28T13:52:27.924Z,39.93
2018-09-28T13:54:56.204Z,39.07
2018-09-28T13:57:24.498Z,39.49
2018-09-28T13:59:52.818Z,40.27
2018-09-28T14:02:22.204Z,38.54
2018-09-28T14:04:50.517Z,38.21
2018-09-28T14:07:18.939Z,34.94
2018-09-28T14:09:47.211Z,35.75
2018-09-28T14:12:15.546Z,36.49
2018-09-28T14:14:43.870Z,36.86
2018-09-28T14:17:12.121Z,37.16
2018-09-28T14:19:40.406Z,36.74
2018-09-28T14:22:09.112Z,37.00
2018-09-28T14:24:37.522Z,37.96
2018-09-28T14:27:05.755Z,38.86
2018-09-28T14:29:34.018Z,38.79
2018-09-28T14:32:02.326Z,38.88
2018-09-28T14:34:30.628Z,39.04
2018-09-28T14:36:59.954Z,38.75
2018-09-28T14:39:29.309Z,39.12
2018-09-28T14:41:57.615Z,39.16
2018-09-28T14:44:30.484Z,38.93
2018-09-28T14:46:58.774Z,39.39
2018-09-28T14:49:27.092Z,39.86
2018-09-28T14:51:55.394Z,40.47
2018-09-28T14:54:23.901Z,40.62
2018-09-28T14:56:52.178Z,41.35
2018-09-28T14:59:20.463Z,42.58
2018-09-28T15:01:48.794Z,43.41
2018-09-28T15:04:17.244Z,42.83
2018-09-28T15:06:45.608Z,43.38
2018-09-28T15:09:13.874Z,42.33
2018-09-28T15:11:42.185Z,41.66
2018-09-28T15:14:10.699Z,41.73
2018-09-28T15:16:39.296Z,41.85
2018-09-28T15:19:07.584Z,41.38
2018-09-28T15:21:35.926Z,41.79
2018-09-28T15:24:04.253Z,41.25
2018-09-28T15:26:32.650Z,40.64
2018-09-28T15:29:00.940Z,40.72
2018-09-28T15:31:29.270Z,40.71
2018-09-28T15:33:57.573Z,40.37
2018-09-28T15:36:25.886Z,39.74
2018-09-28T15:38:54.211Z,40.25
2018-09-28T15:41:22.522Z,39.52
2018-09-28T15:43:50.808Z,39.68
2018-09-28T15:46:19.138Z,40.17
2018-09-28T15:48:47.442Z,40.30
2018-09-28T15:51:15.758Z,39.76
2018-09-28T15:53:44.055Z,40.64
2018-09-28T15:56:12.360Z,40.82
2018-09-28T15:58:41.038Z,40.67
2018-09-28T16:01:09.395Z,40.59
2018-09-28T16:03:37.680Z,40.12
2018-09-28T16:06:05.987Z,40.87
2018-09-28T16:08:34.290Z,40.80
2018-09-28T16:11:02.602Z,40.72
2018-09-28T16:13:30.950Z,41.18
2018-09-28T16:15:59.234Z,40.98
2018-09-28T16:18:27.768Z,41.25
2018-09-28T16:20:56.083Z,41.42
2018-09-28T16:23:24.398Z,41.73
2018-09-28T16:25:52.694Z,41.72
2018-09-28T16:28:21.011Z,41.67
2018-09-28T16:30:49.324Z,41.41
2018-09-28T16:33:17.655Z,41.44
2018-09-28T16:35:45.967Z,41.55
2018-09-28T16:38:14.310Z,41.11
2018-09-28T16:40:42.589Z,40.58
2018-09-28T16:43:10.915Z,40.48
2018-09-28T16:45:39.213Z,40.84
2018-09-28T16:48:07.543Z,41.02
2018-09-28T16:50:36.013Z,41.10
2018-09-28T16:53:05.010Z,41.30
2018-09-28T16:55:33.834Z,41.51
2018-09-28T16:58:02.166Z,41.69
2018-09-28T17:00:30.498Z,42.02
2018-09-28T17:02:58.874Z,41.90
2018-09-28T17:05:27.650Z,41.93
2018-09-28T17:07:56.983Z,42.24
2018-09-28T17:10:25.751Z,41.68
2018-09-28T17:12:54.063Z,41.95
2018-09-28T17:15:22.365Z,41.10
2018-09-28T17:17:50.658Z,41.43
2018-09-28T17:20:19.012Z,41.17
2018-09-28T17:22:47.324Z,40.78
2018-09-28T17:25:15.641Z,40.67
2018-09-28T17:27:44.424Z,40.42
2018-09-28T17:30:12.868Z,40.78
2018-09-28T17:32:41.672Z,40.78
2018-09-28T17:35:10.418Z,41.11
2018-09-28T17:37:39.331Z,40.65
2018-09-28T17:40:07.695Z,40.86
2018-09-28T17:42:35.986Z,41.50
2018-09-28T17:45:05.155Z,41.38
2018-09-28T17:47:34.209Z,41.22
2018-09-28T17:50:02.555Z,41.34
2018-09-28T17:52:30.839Z,41.60
2018-09-28T17:54:59.155Z,41.21
2018-09-28T17:57:27.439Z,41.49
2018-09-28T17:59:55.727Z,41.40
2018-09-28T18:02:24.032Z,41.33
2018-09-28T18:04:52.351Z,42.01
2018-09-28T18:07:20.714Z,42.29
2018-09-28T18:09:49.019Z,41.77
2018-09-28T18:12:17.347Z,42.53
2018-09-28T18:14:45.655Z,42.17
2018-09-28T18:17:13.943Z,42.83
2018-09-28T18:19:42.266Z,43.45
2018-09-28T18:22:10.591Z,43.98
2018-09-28T18:24:38.927Z,44.37
2018-09-28T18:27:07.592Z,44.51
2018-09-28T18:29:35.890Z,44.31
2018-09-28T18:32:04.178Z,44.62
2018-09-28T18:34:32.834Z,44.71
2018-09-28T18:37:01.655Z,45.14
2018-09-28T18:39:29.971Z,46.07
2018-09-28T18:41:58.303Z,47.14
2018-09-28T18:44:26.599Z,46.81
2018-09-28T18:46:55.295Z,47.61
2018-09-28T18:49:23.617Z,47.67
2018-09-28T18:51:51.947Z,47.70
2018-09-28T18:54:20.244Z,47.70
2018-09-28T18:56:48.543Z,47.63
2018-09-28T18:59:16.851Z,47.68
2018-09-28T19:01:45.145Z,48.02
2018-09-28T19:04:13.436Z,47.62
2018-09-28T19:06:41.747Z,47.65
2018-09-28T19:09:11.314Z,47.46
2018-09-28T19:11:40.125Z,47.41
2018-09-28T19:14:08.435Z,47.14
2018-09-28T19:16:36.802Z,47.01
2018-09-28T19:19:05.085Z,47.11
2018-09-28T19:21:33.450Z,47.54
2018-09-28T19:24:01.718Z,47.32
2018-09-28T19:26:30.003Z,47.09
2018-09-28T19:28:58.273Z,47.11
2018-09-28T19:31:26.563Z,47.18
2018-09-28T19:33:54.838Z,46.94
2018-09-28T19:36:23.134Z,47.38
2018-09-28T19:38:51.415Z,47.31
2018-09-28T19:41:19.709Z,47.05
2018-09-28T19:43:47.983Z,47.23
2018-09-28T19:46:16.326Z,47.32
2018-09-28T19:48:44.607Z,47.28
2018-09-28T19:51:12.922Z,47.43
2018-09-28T19:53:41.191Z,47.75
2018-09-28T19:56:10.307Z,47.63
2018-09-28T19:58:38.938Z,47.82
2018-09-28T20:01:07.500Z,48.12
2018-09-28T20:03:35.810Z,48.22
2018-09-28T20:06:04.166Z,48.28
2018-09-28T20:08:32.486Z,48.49
2018-09-28T20:11:00.794Z,48.63
2018-09-28T20:13:29.106Z,48.91
2018-09-28T20:15:57.378Z,48.86
2018-09-28T20:18:25.646Z,48.89
2018-09-28T20:20:53.919Z,49.05
2018-09-28T20:23:22.239Z,49.18
2018-09-28T20:25:50.580Z,49.39
2018-09-28T20:28:18.882Z,49.76
2018-09-28T20:30:47.179Z,49.31
2018-09-28T20:33:15.458Z,49.66
2018-09-28T20:35:44.790Z,49.90
2018-09-28T20:38:13.106Z,50.05
2018-09-28T20:40:41.386Z,49.86
2018-09-28T20:43:09.687Z,50.21
2018-09-28T20:45:37.978Z,50.59
2018-09-28T20:48:06.594Z,50.55
2018-09-28T20:50:34.862Z,50.62
2018-09-28T20:53:03.202Z,50.51
2018-09-28T20:55:31.554Z,50.50
2018-09-28T20:57:59.846Z,50.86
2018-09-28T21:00:28.113Z,51.00
2018-09-28T21:02:56.408Z,51.38
2018-09-28T21:05:24.711Z,51.20
2018-09-28T21:07:52.998Z,51.63
2018-09-28T21:10:21.263Z,51.74
2018-09-28T21:12:49.871Z,51.85
2018-09-28T21:15:19.178Z,51.51
2018-09-28T21:17:47.475Z,51.66
2018-09-28T21:20:15.774Z,52.35
2018-09-28T21:22:44.070Z,52.09
2018-09-28T21:25:12.346Z,52.33
2018-09-28T21:27:40.697Z,52.25
2018-09-28T21:30:08.967Z,52.59
2018-09-28T21:32:37.274Z,52.56
2018-09-28T21:35:05.905Z,52.55
2018-09-28T21:37:34.232Z,52.78
2018-09-28T21:40:02.498Z,52.99
2018-09-28T21:42:30.780Z,52.95
2018-09-28T21:44:59.054Z,52.75
2018-09-28T21:47:27.322Z,52.58
2018-09-28T21:49:55.813Z,52.26
2018-09-28T21:52:24.125Z,52.74
2018-09-28T21:54:53.454Z,53.18
2018-09-28T21:57:21.742Z,53.31
2018-09-28T21:59:50.079Z,52.88
2018-09-28T22:02:18.365Z,53.48
2018-09-28T22:04:46.693Z,53.62
2018-09-28T22:07:14.962Z,53.06
2018-09-28T22:09:43.271Z,53.44
2018-09-28T22:12:11.818Z,53.17
2018-09-28T22:14:40.221Z,53.31
2018-09-28T22:17:08.506Z,53.09
2018-09-28T22:19:36.803Z,53.53
2018-09-28T22:22:05.098Z,53.56
2018-09-28T22:24:33.434Z,53.95
2018-09-28T22:27:01.742Z,53.91
2018-09-28T22:29:30.048Z,53.54
2018-09-28T22:31:58.338Z,53.73
2018-09-28T22:34:26.662Z,53.43
2018-09-28T22:36:54.945Z,53.30
2018-09-28T22:39:23.241Z,53.09
2018-09-28T22:41:51.532Z,53.19
2018-09-28T22:44:19.839Z,53.88
2018-09-28T22:46:48.134Z,53.88
2018-09-28T22:49:16.430Z,54.08
2018-09-28T22:51:44.717Z,53.80
2018-09-28T22:54:13.028Z,54.17
2018-09-28T22:56:41.326Z,54.09
2018-09-28T22:59:09.639Z,53.88
2018-09-28T23:01:39.151Z,53.84
2018-09-28T23:04:08.468Z,53.78
2018-09-28T23:06:36.755Z,54.00
2018-09-28T23:09:06.528Z,54.06
2018-09-28T23:11:34.823Z,54.25
2018-09-28T23:14:03.167Z,54.40
2018-09-28T23:16:31.454Z,53.86
2018-09-28T23:18:59.742Z,54.03
2018-09-28T23:21:28.053Z,54.47
2018-09-28T23:23:56.330Z,54.18
2018-09-28T23:26:24.595Z,54.32
2018-09-28T23:28:52.889Z,53.98
2018-09-28T23:31:21.172Z,54.55
2018-09-28T23:33:49.479Z,54.42
2018-09-28T23:36:17.742Z,54.38
2018-09-28T23:38:46.028Z,54.29
2018-09-28T23:41:14.286Z,54.23
2018-09-28T23:43:42.600Z,55.15
2018-09-28T23:46:10.854Z,54.54
2018-09-28T23:48:39.130Z,55.26
2018-09-28T23:51:07.474Z,55.20
2018-09-28T23:53:35.831Z,54.79
2018-09-28T23:56:04.085Z,55.83
2018-09-28T23:58:32.362Z,54.81
